createdAt,value
2023-01-11T00:00:56.687Z,5.49
2023-01-11T00:03:09.465Z,5.45
2023-01-11T00:05:22.047Z,5.40
2023-01-11T00:07:34.632Z,5.38
2023-01-11T00:09:47.849Z,5.35
2023-01-11T00:12:00.433Z,5.35
2023-01-11T00:14:14.636Z,5.34
2023-01-11T00:16:27.218Z,5.30
2023-01-11T00:18:40.982Z,5.23
2023-01-11T00:20:53.587Z,5.17
2023-01-11T00:23:06.111Z,5.09
2023-01-11T00:25:18.701Z,5.00
2023-01-11T00:27:31.383Z,4.91
2023-01-11T00:29:44.908Z,4.82
2023-01-11T00:31:57.529Z,4.76
2023-01-11T00:34:10.143Z,4.74
2023-01-11T00:36:22.725Z,4.69
2023-01-11T00:38:46.462Z,4.64
2023-01-11T00:41:18.973Z,4.57
2023-01-11T00:43:49.971Z,4.53
2023-01-11T00:46:21.027Z,4.45
2023-01-11T00:48:33.599Z,4.34
2023-01-11T00:50:46.148Z,4.34
2023-01-11T00:52:59.674Z,4.30
2023-01-11T00:55:12.233Z,4.23
2023-01-11T00:57:24.860Z,4.21
2023-01-11T00:59:39.455Z,4.20
2023-01-11T01:01:52.198Z,4.14
2023-01-11T01:04:05.171Z,4.09
2023-01-11T01:06:17.939Z,4.02
2023-01-11T01:08:30.588Z,3.97
2023-01-11T01:10:43.083Z,3.94
2023-01-11T01:13:14.256Z,3.85
2023-01-11T01:15:27.252Z,3.71
2023-01-11T01:17:39.773Z,3.65
2023-01-11T01:19:52.364Z,3.62
2023-01-11T01:22:05.326Z,3.60
2023-01-11T01:24:19.300Z,3.59
2023-01-11T01:26:31.972Z,3.56
2023-01-11T01:28:44.743Z,3.53
2023-01-11T01:30:57.448Z,3.50
2023-01-11T01:33:09.965Z,3.49
2023-01-11T01:35:22.643Z,3.48
2023-01-11T01:37:35.236Z,3.45
2023-01-11T01:39:47.804Z,3.38
2023-01-11T01:42:00.465Z,3.32
2023-01-11T01:44:50.526Z,3.28
2023-01-11T01:47:03.973Z,3.18
2023-01-11T01:49:16.981Z,3.14
2023-01-11T01:51:38.755Z,3.13
2023-01-11T01:53:57.267Z,3.11
2023-01-11T01:56:15.665Z,3.09
2023-01-11T01:58:36.555Z,3.08
2023-01-11T02:00:49.096Z,3.06
2023-01-11T02:03:02.343Z,3.05
2023-01-11T02:05:17.336Z,3.04
2023-01-11T02:07:33.827Z,3.04
2023-01-11T02:10:09.445Z,3.05
2023-01-11T02:12:24.572Z,3.03
2023-01-11T02:14:38.758Z,3.00
2023-01-11T02:16:51.387Z,2.99
2023-01-11T02:19:05.597Z,2.98
2023-01-11T02:21:53.558Z,2.97
2023-01-11T02:24:55.353Z,2.92
2023-01-11T02:27:21.729Z,2.86
2023-01-11T02:29:49.392Z,2.86
2023-01-11T02:32:20.450Z,2.86
2023-01-11T02:34:41.782Z,2.87
2023-01-11T02:37:14.843Z,2.89
2023-01-11T02:39:42.259Z,2.90
2023-01-11T02:42:22.981Z,2.93
2023-01-11T02:45:19.165Z,2.94
2023-01-11T02:47:39.707Z,2.94
2023-01-11T02:50:06.924Z,2.96
2023-01-11T02:52:31.828Z,2.98
2023-01-11T02:54:47.848Z,3.01
2023-01-11T02:57:02.633Z,3.03
2023-01-11T02:59:22.677Z,3.03
2023-01-11T03:01:55.518Z,3.03
2023-01-11T03:04:26.307Z,3.01
2023-01-11T03:06:38.900Z,2.99
2023-01-11T03:09:28.662Z,3.00
2023-01-11T03:12:09.214Z,2.96
2023-01-11T03:14:27.737Z,2.92
2023-01-11T03:16:50.740Z,2.91
2023-01-11T03:19:21.897Z,2.88
2023-01-11T03:21:47.082Z,2.84
2023-01-11T03:24:33.890Z,2.80
2023-01-11T03:27:13.342Z,2.74
2023-01-11T03:29:31.246Z,2.72
2023-01-11T03:31:58.507Z,2.72
2023-01-11T03:34:29.438Z,2.70
2023-01-11T03:36:59.871Z,2.68
2023-01-11T03:39:24.972Z,2.65
2023-01-11T03:41:40.811Z,2.62
2023-01-11T03:43:57.126Z,2.60
2023-01-11T03:46:14.796Z,2.56
2023-01-11T03:48:31.047Z,2.53
2023-01-11T03:50:46.051Z,2.53
2023-01-11T03:53:00.867Z,2.53
2023-01-11T03:55:16.577Z,2.52
2023-01-11T03:57:39.576Z,2.50
2023-01-11T03:59:52.166Z,2.46
2023-01-11T04:02:05.027Z,2.47
2023-01-11T04:04:17.708Z,2.46
2023-01-11T04:06:34.223Z,2.46
2023-01-11T04:08:46.769Z,2.46
2023-01-11T04:10:59.576Z,2.46
2023-01-11T04:13:12.334Z,2.46
2023-01-11T04:15:24.815Z,2.46
2023-01-11T04:17:37.416Z,2.47
2023-01-11T04:19:50.001Z,2.48
2023-01-11T04:22:02.551Z,2.49
2023-01-11T04:24:15.257Z,2.49
2023-01-11T04:26:27.731Z,2.48
2023-01-11T04:28:40.309Z,2.48
2023-01-11T04:30:53.544Z,2.47
2023-01-11T04:33:06.134Z,2.46
2023-01-11T04:35:18.882Z,2.47
2023-01-11T04:37:31.427Z,2.48
2023-01-11T04:39:43.977Z,2.48
2023-01-11T04:42:15.108Z,2.49
2023-01-11T04:44:27.598Z,2.46
2023-01-11T04:46:40.154Z,2.46
2023-01-11T04:48:52.877Z,2.47
2023-01-11T04:51:09.802Z,2.46
2023-01-11T04:53:22.299Z,2.45
2023-01-11T04:55:36.329Z,2.46
2023-01-11T04:57:48.928Z,2.46
2023-01-11T05:00:01.655Z,2.48
2023-01-11T05:02:15.475Z,2.48
2023-01-11T05:04:28.122Z,2.48
2023-01-11T05:06:40.894Z,2.47
2023-01-11T05:08:53.473Z,2.47
2023-01-11T05:11:07.992Z,2.48
2023-01-11T05:13:21.548Z,2.51
2023-01-11T05:15:34.827Z,2.51
2023-01-11T05:17:47.403Z,2.50
2023-01-11T05:19:59.941Z,2.50
2023-01-11T05:22:12.667Z,2.51
2023-01-11T05:24:25.216Z,2.54
2023-01-11T05:26:43.969Z,2.55
2023-01-11T05:28:59.184Z,2.56
2023-01-11T05:31:12.912Z,2.56
2023-01-11T05:33:25.512Z,2.57
2023-01-11T05:35:38.000Z,2.59
2023-01-11T05:37:50.555Z,2.61
2023-01-11T05:40:03.467Z,2.63
2023-01-11T05:42:16.756Z,2.65
2023-01-11T05:44:47.663Z,2.66
2023-01-11T05:47:00.370Z,2.66
2023-01-11T05:49:14.312Z,2.66
2023-01-11T05:51:30.603Z,2.66
2023-01-11T05:53:43.801Z,2.64
2023-01-11T05:55:58.521Z,2.62
2023-01-11T05:58:11.075Z,2.60
2023-01-11T06:00:24.238Z,2.58
2023-01-11T06:02:37.623Z,2.59
2023-01-11T06:04:50.356Z,2.59
2023-01-11T06:07:02.993Z,2.59
2023-01-11T06:09:15.619Z,2.58
2023-01-11T06:11:28.378Z,2.56
2023-01-11T06:13:40.995Z,2.56
2023-01-11T06:16:01.450Z,2.55
2023-01-11T06:18:14.612Z,2.52
2023-01-11T06:20:27.135Z,2.48
2023-01-11T06:22:39.711Z,2.47
2023-01-11T06:24:52.237Z,2.47
2023-01-11T06:27:04.880Z,2.47
2023-01-11T06:29:17.510Z,2.47
2023-01-11T06:31:30.037Z,2.47
2023-01-11T06:33:42.717Z,2.48
2023-01-11T06:35:56.546Z,2.47
2023-01-11T06:38:13.786Z,2.46
2023-01-11T06:40:26.345Z,2.45
2023-01-11T06:42:38.940Z,2.45
2023-01-11T06:44:51.458Z,2.47
2023-01-11T06:47:04.123Z,2.48
2023-01-11T06:49:16.736Z,2.48
2023-01-11T06:51:29.282Z,2.49
2023-01-11T06:53:43.259Z,2.49
2023-01-11T06:55:58.404Z,2.51
2023-01-11T06:58:11.386Z,2.55
2023-01-11T07:00:24.868Z,2.59
2023-01-11T07:02:37.502Z,2.63
2023-01-11T07:04:50.160Z,2.67
2023-01-11T07:07:02.747Z,2.71
2023-01-11T07:09:15.280Z,2.78
2023-01-11T07:11:27.889Z,2.83
2023-01-11T07:13:40.384Z,2.90
2023-01-11T07:15:57.415Z,2.96
2023-01-11T07:18:12.853Z,3.02
2023-01-11T07:20:25.928Z,3.06
2023-01-11T07:22:38.531Z,3.11
2023-01-11T07:24:51.895Z,3.17
2023-01-11T07:27:05.230Z,3.23
2023-01-11T07:29:17.852Z,3.28
2023-01-11T07:31:30.549Z,3.32
2023-01-11T07:33:43.153Z,3.37
2023-01-11T07:35:55.778Z,3.42
2023-01-11T07:38:10.173Z,3.50
2023-01-11T07:40:22.720Z,3.59
2023-01-11T07:42:54.119Z,3.69
2023-01-11T07:45:07.290Z,3.76
2023-01-11T07:47:19.865Z,3.84
2023-01-11T07:49:32.425Z,3.89
2023-01-11T07:51:45.003Z,3.95
2023-01-11T07:53:57.536Z,3.99
2023-01-11T07:56:10.104Z,4.06
2023-01-11T07:58:23.586Z,4.12
2023-01-11T08:00:36.218Z,4.19
2023-01-11T08:02:52.969Z,4.26
2023-01-11T08:05:06.109Z,4.35
2023-01-11T08:07:18.667Z,4.43
2023-01-11T08:09:31.820Z,4.51
2023-01-11T08:12:03.085Z,4.57
2023-01-11T08:14:35.431Z,4.61
2023-01-11T08:16:48.006Z,4.67
2023-01-11T08:19:01.562Z,4.70
2023-01-11T08:21:14.925Z,4.76
2023-01-11T08:23:27.577Z,4.80
2023-01-11T08:25:40.526Z,4.85
2023-01-11T08:27:53.103Z,4.89
2023-01-11T08:30:06.405Z,4.91
2023-01-11T08:32:19.007Z,4.92
2023-01-11T08:34:33.761Z,4.96
2023-01-11T08:36:47.093Z,5.02
2023-01-11T08:38:59.686Z,5.08
2023-01-11T08:41:12.265Z,5.17
2023-01-11T08:43:24.936Z,5.26
2023-01-11T08:45:37.592Z,5.33
2023-01-11T08:47:51.820Z,5.41
2023-01-11T08:50:05.364Z,5.50
2023-01-11T08:52:18.286Z,5.61
2023-01-11T08:54:30.869Z,5.69
2023-01-11T08:56:43.580Z,5.73
2023-01-11T08:58:56.151Z,5.72
2023-01-11T09:01:09.663Z,5.71
2023-01-11T09:03:22.316Z,5.74
2023-01-11T09:05:34.829Z,5.81
2023-01-11T09:07:47.409Z,5.88
2023-01-11T09:10:00.010Z,5.96
2023-01-11T09:12:12.964Z,6.03
2023-01-11T09:14:27.543Z,6.07
2023-01-11T09:16:40.166Z,6.12
2023-01-11T09:18:52.809Z,6.19
2023-01-11T09:21:05.447Z,6.33
2023-01-11T09:23:18.090Z,6.43
2023-01-11T09:25:30.724Z,6.51
2023-01-11T09:27:48.385Z,6.60
2023-01-11T09:30:02.691Z,6.71
2023-01-11T09:32:15.217Z,6.78
2023-01-11T09:34:27.885Z,6.83
2023-01-11T09:36:40.741Z,6.85
2023-01-11T09:38:56.822Z,6.84
2023-01-11T09:41:26.810Z,6.78
2023-01-11T09:43:50.101Z,6.69
2023-01-11T09:46:08.490Z,6.63
2023-01-11T09:48:47.971Z,6.62
2023-01-11T09:51:01.537Z,6.58
2023-01-11T09:53:38.193Z,6.61
2023-01-11T09:55:52.852Z,6.63
2023-01-11T09:58:32.747Z,6.66
2023-01-11T10:01:13.505Z,6.68
2023-01-11T10:03:48.930Z,6.72
2023-01-11T10:06:15.045Z,6.87
2023-01-11T10:18:33.079Z,7.46
2023-01-11T10:18:33.080Z,7.56
2023-01-11T10:19:47.813Z,7.51
2023-01-11T10:22:15.617Z,7.53
2023-01-11T10:24:37.406Z,7.63
2023-01-11T10:26:53.392Z,7.82
2023-01-11T10:29:14.768Z,7.97
2023-01-11T10:31:49.321Z,7.99
2023-01-11T10:34:04.227Z,7.95
2023-01-11T10:36:40.766Z,7.97
2023-01-11T10:39:29.684Z,8.02
2023-01-11T10:41:57.360Z,8.04
2023-01-11T10:44:10.045Z,8.06
2023-01-11T10:46:26.189Z,8.13
2023-01-11T10:48:40.443Z,8.15
2023-01-11T10:51:24.915Z,8.15
2023-01-11T10:54:14.303Z,8.29
2023-01-11T10:57:04.664Z,8.49
2023-01-11T10:59:30.386Z,8.52
2023-01-11T11:01:54.321Z,8.65
2023-01-11T11:04:15.712Z,8.74
2023-01-11T11:06:44.112Z,8.72
2023-01-11T11:09:14.454Z,8.67
2023-01-11T11:11:37.901Z,8.59
2023-01-11T11:14:13.140Z,8.54
2023-01-11T11:16:37.987Z,8.53
2023-01-11T11:18:52.554Z,8.61
2023-01-11T11:21:16.229Z,8.69
2023-01-11T11:23:29.223Z,8.78
2023-01-11T11:25:45.164Z,8.83
2023-01-11T11:28:05.002Z,8.81
2023-01-11T11:30:38.975Z,8.80
2023-01-11T11:32:56.623Z,8.73
2023-01-11T11:35:32.565Z,8.70
2023-01-11T11:37:45.674Z,8.64
2023-01-11T11:39:58.239Z,8.67
2023-01-11T11:42:17.716Z,8.74
2023-01-11T11:44:30.328Z,8.77
2023-01-11T11:46:56.450Z,8.86
2023-01-11T11:49:16.842Z,8.89
2023-01-11T11:51:29.504Z,8.86
2023-01-11T11:53:48.108Z,8.83
2023-01-11T11:56:25.328Z,8.82
2023-01-11T11:58:40.972Z,8.84
2023-01-11T12:00:53.853Z,8.88
2023-01-11T12:03:15.801Z,8.94
2023-01-11T12:05:28.745Z,8.94
2023-01-11T12:07:55.099Z,8.98
2023-01-11T12:10:32.122Z,9.02
2023-01-11T12:12:55.518Z,9.04
2023-01-11T12:15:23.481Z,9.11
2023-01-11T12:17:36.950Z,9.17
2023-01-11T12:19:49.551Z,9.20
2023-01-11T12:22:19.283Z,9.27
2023-01-11T12:24:33.819Z,9.37
2023-01-11T12:27:11.522Z,9.40
2023-01-11T12:29:34.461Z,9.40
2023-01-11T12:32:08.802Z,9.38
2023-01-11T12:34:24.140Z,9.31
2023-01-11T12:37:15.767Z,9.31
2023-01-11T12:39:38.880Z,9.28
2023-01-11T12:42:16.474Z,9.23
2023-01-11T12:44:57.889Z,9.17
2023-01-11T12:47:42.239Z,9.15
2023-01-11T12:50:09.425Z,9.12
2023-01-11T12:52:59.010Z,9.08
2023-01-11T12:55:48.458Z,9.04
2023-01-11T12:58:09.758Z,8.96
2023-01-11T13:00:43.841Z,8.94
2023-01-11T13:03:34.143Z,8.91
2023-01-11T13:06:01.739Z,8.88
2023-01-11T13:08:41.643Z,8.87
2023-01-11T13:11:34.688Z,8.86
2023-01-11T13:14:03.560Z,8.79
2023-01-11T13:16:39.382Z,8.80
2023-01-11T13:19:14.934Z,8.78
2023-01-11T13:21:33.105Z,8.75
2023-01-11T13:23:54.746Z,8.77
2023-01-11T13:26:27.896Z,8.79
2023-01-11T13:28:44.078Z,8.78
2023-01-11T13:30:58.717Z,8.79
2023-01-11T13:33:19.636Z,8.77
2023-01-11T13:35:32.179Z,8.71
2023-01-11T13:37:52.066Z,8.68
2023-01-11T13:40:35.497Z,8.64
2023-01-11T13:42:57.623Z,8.58
2023-01-11T13:45:23.834Z,8.54
2023-01-11T13:47:47.140Z,8.48
2023-01-11T13:50:20.524Z,8.46
2023-01-11T13:52:41.934Z,8.40
2023-01-11T13:55:25.956Z,8.37
2023-01-11T13:58:02.628Z,8.28
2023-01-11T14:00:23.830Z,8.24
2023-01-11T14:02:45.858Z,8.21
2023-01-11T14:05:03.450Z,8.20
2023-01-11T14:07:44.100Z,8.22
2023-01-11T14:10:13.835Z,8.21
2023-01-11T14:13:06.129Z,8.17
2023-01-11T14:15:26.356Z,8.12
2023-01-11T14:18:11.278Z,8.11
2023-01-11T14:20:48.639Z,8.08
2023-01-11T14:23:17.915Z,8.07
2023-01-11T14:26:06.203Z,8.07
2023-01-11T14:28:33.770Z,8.06
2023-01-11T14:31:04.429Z,8.05
2023-01-11T14:33:49.598Z,8.01
2023-01-11T14:36:26.139Z,7.99
2023-01-11T14:39:02.494Z,7.94
2023-01-11T14:41:37.703Z,7.93
2023-01-11T14:44:15.588Z,7.91
2023-01-11T14:46:51.103Z,7.90
2023-01-11T14:49:51.259Z,7.89
2023-01-11T14:52:09.720Z,7.84
2023-01-11T14:54:30.358Z,7.87
2023-01-11T14:56:42.875Z,7.89
2023-01-11T14:59:03.869Z,7.91
2023-01-11T15:01:16.513Z,7.91
2023-01-11T15:03:39.607Z,7.90
2023-01-11T15:06:01.292Z,7.89
2023-01-11T15:08:13.755Z,7.88
2023-01-11T15:10:29.302Z,7.89
2023-01-11T15:12:41.890Z,7.88
2023-01-11T15:15:02.870Z,7.88
2023-01-11T15:17:38.779Z,7.88
2023-01-11T15:19:53.215Z,7.83
2023-01-11T15:22:06.947Z,7.83
2023-01-11T15:24:31.845Z,7.84
2023-01-11T15:26:49.569Z,7.82
2023-01-11T15:29:02.788Z,7.80
2023-01-11T15:31:34.376Z,7.81
2023-01-11T15:33:48.764Z,7.79
2023-01-11T15:36:03.612Z,7.82
2023-01-11T15:38:21.822Z,7.81
2023-01-11T15:40:40.071Z,7.82
2023-01-11T15:43:38.878Z,7.81
2023-01-11T15:46:29.413Z,7.76
2023-01-11T15:48:53.945Z,7.76
2023-01-11T15:51:12.453Z,7.78
2023-01-11T15:53:30.801Z,7.79
2023-01-11T15:56:24.381Z,7.82
2023-01-11T15:58:45.789Z,7.78
2023-01-11T16:00:58.320Z,7.79
2023-01-11T16:03:30.321Z,7.80
2023-01-11T16:05:53.407Z,7.79
2023-01-11T16:08:31.106Z,7.80
2023-01-11T16:10:57.404Z,7.79
2023-01-11T16:13:41.852Z,7.76
2023-01-11T16:16:17.481Z,7.71
2023-01-11T16:18:36.970Z,7.70
2023-01-11T16:21:03.611Z,7.73
2023-01-11T16:23:20.833Z,7.71
2023-01-11T16:25:38.716Z,7.73
2023-01-11T16:27:53.892Z,7.72
2023-01-11T16:30:14.691Z,7.71
2023-01-11T16:32:32.716Z,7.70
2023-01-11T16:34:50.186Z,7.71
2023-01-11T16:37:31.528Z,7.70
2023-01-11T16:39:44.458Z,7.67
2023-01-11T16:42:06.120Z,7.69
2023-01-11T16:44:28.304Z,7.67
2023-01-11T16:46:47.134Z,7.68
2023-01-11T16:49:09.512Z,7.68
2023-01-11T16:51:22.422Z,7.71
2023-01-11T16:53:40.486Z,7.74
2023-01-11T16:56:14.100Z,7.74
2023-01-11T16:58:29.113Z,7.73
2023-01-11T17:00:41.968Z,7.77
2023-01-11T17:03:18.246Z,7.80
2023-01-11T17:05:31.125Z,7.80
2023-01-11T17:07:43.748Z,7.79
2023-01-11T17:10:22.922Z,7.81
2023-01-11T17:12:35.540Z,7.78
2023-01-11T17:15:09.675Z,7.76
2023-01-11T17:17:23.310Z,7.77
2023-01-11T17:19:43.171Z,7.78
2023-01-11T17:22:06.419Z,7.78
2023-01-11T17:24:26.063Z,7.77
2023-01-11T17:26:45.786Z,7.77
2023-01-11T17:29:00.186Z,7.78
2023-01-11T17:31:21.947Z,7.80
2023-01-11T17:33:34.518Z,7.80
2023-01-11T17:35:47.168Z,7.82
2023-01-11T17:38:04.949Z,7.83
2023-01-11T17:40:26.145Z,7.85
2023-01-11T17:42:57.174Z,7.85
2023-01-11T17:45:27.800Z,7.85
2023-01-11T17:47:42.931Z,7.87
2023-01-11T17:49:57.366Z,7.87
2023-01-11T17:52:24.386Z,7.86
2023-01-11T17:54:36.971Z,7.84
2023-01-11T17:56:58.205Z,7.83
2023-01-11T17:59:21.569Z,7.85
2023-01-11T18:01:34.355Z,7.87
2023-01-11T18:03:57.947Z,7.88
2023-01-11T18:06:13.417Z,7.88
2023-01-11T18:08:26.019Z,7.91
2023-01-11T18:10:40.176Z,7.93
2023-01-11T18:12:55.737Z,7.92
2023-01-11T18:15:37.516Z,7.89
2023-01-11T18:17:56.809Z,7.85
2023-01-11T18:20:15.518Z,7.87
2023-01-11T18:22:42.672Z,7.86
2023-01-11T18:24:57.194Z,7.85
2023-01-11T18:27:24.235Z,7.87
2023-01-11T18:29:36.962Z,7.87
2023-01-11T18:31:49.718Z,7.87
2023-01-11T18:34:05.546Z,7.87
2023-01-11T18:36:21.626Z,7.90
2023-01-11T18:38:35.782Z,7.88
2023-01-11T18:40:50.742Z,7.91
2023-01-11T18:43:03.505Z,7.90
2023-01-11T18:45:16.696Z,7.91
2023-01-11T18:47:30.334Z,7.93
2023-01-11T18:49:43.703Z,7.90
2023-01-11T18:51:56.272Z,7.91
2023-01-11T18:54:16.739Z,7.90
2023-01-11T18:56:29.375Z,7.89
2023-01-11T18:58:42.540Z,7.89
2023-01-11T19:00:55.176Z,7.89
2023-01-11T19:03:11.379Z,7.90
2023-01-11T19:05:24.358Z,7.92
2023-01-11T19:07:37.292Z,7.93
2023-01-11T19:09:50.142Z,7.96
2023-01-11T19:12:03.138Z,7.99
2023-01-11T19:14:15.867Z,8.04
2023-01-11T19:16:28.439Z,8.05
2023-01-11T19:18:41.262Z,8.08
2023-01-11T19:21:29.861Z,8.06
2023-01-11T19:23:42.390Z,7.94
2023-01-11T19:26:01.142Z,7.95
2023-01-11T19:28:13.913Z,7.97
2023-01-11T19:30:26.742Z,7.98
2023-01-11T19:32:39.439Z,7.99
2023-01-11T19:34:52.911Z,7.99
2023-01-11T19:37:05.742Z,7.98
2023-01-11T19:39:18.627Z,7.94
2023-01-11T19:41:51.389Z,7.86
2023-01-11T19:44:04.130Z,7.76
2023-01-11T19:46:30.147Z,7.72
2023-01-11T19:48:44.198Z,7.66
2023-01-11T19:51:04.991Z,7.61
2023-01-11T19:53:17.779Z,7.53
2023-01-11T19:55:30.660Z,7.48
2023-01-11T19:57:43.516Z,7.43
2023-01-11T19:59:56.332Z,7.36
2023-01-11T20:02:11.375Z,7.29
2023-01-11T20:13:20.489Z,6.70
2023-01-11T20:15:33.336Z,6.62
2023-01-11T20:17:46.107Z,6.69
2023-01-11T20:19:58.625Z,6.74
2023-01-11T20:22:11.360Z,6.77
2023-01-11T20:24:28.317Z,6.81
2023-01-11T20:26:41.980Z,6.84
2023-01-11T20:28:56.641Z,6.84
2023-01-11T20:31:09.636Z,6.84
2023-01-11T20:33:22.501Z,6.83
2023-01-11T20:35:35.230Z,6.82
2023-01-11T20:37:47.965Z,6.83
2023-01-11T20:40:00.541Z,6.82
2023-01-11T20:42:13.386Z,6.81
2023-01-11T20:44:28.019Z,6.79
2023-01-11T20:46:40.616Z,6.78
2023-01-11T20:48:53.495Z,6.75
2023-01-11T20:51:06.131Z,6.75
2023-01-11T20:53:18.660Z,6.74
2023-01-11T20:55:31.302Z,6.75
2023-01-11T20:57:47.770Z,6.71
2023-01-11T21:00:00.513Z,6.71
2023-01-11T21:02:13.682Z,6.70
2023-01-11T21:04:26.437Z,6.68
2023-01-11T21:06:41.739Z,6.66
2023-01-11T21:08:59.160Z,6.65
2023-01-11T21:11:14.112Z,6.64
2023-01-11T21:13:26.692Z,6.63
2023-01-11T21:15:39.411Z,6.63
2023-01-11T21:17:51.969Z,6.64
2023-01-11T21:20:05.648Z,6.64
2023-01-11T21:22:18.243Z,6.66
2023-01-11T21:24:30.957Z,6.66
2023-01-11T21:26:45.821Z,6.65
2023-01-11T21:29:01.071Z,6.66
2023-01-11T21:31:13.965Z,6.67
2023-01-11T21:33:27.044Z,6.70
2023-01-11T21:35:39.547Z,6.72
2023-01-11T21:37:52.273Z,6.73
2023-01-11T21:40:05.430Z,6.73
2023-01-11T21:42:18.081Z,6.72
2023-01-11T21:44:33.658Z,6.72
2023-01-11T21:46:46.423Z,6.70
2023-01-11T21:48:59.150Z,6.72
2023-01-11T21:51:11.982Z,6.74
2023-01-11T21:53:28.854Z,6.75
2023-01-11T21:55:41.437Z,6.75
2023-01-11T21:57:53.968Z,6.73
2023-01-11T22:00:07.176Z,6.72
2023-01-11T22:02:19.722Z,6.72
2023-01-11T22:04:32.494Z,6.71
2023-01-11T22:06:50.880Z,6.71
2023-01-11T22:09:04.616Z,6.73
2023-01-11T22:11:17.949Z,6.74
2023-01-11T22:13:32.460Z,6.74
2023-01-11T22:15:45.004Z,6.75
2023-01-11T22:17:57.536Z,6.74
2023-01-11T22:20:10.934Z,6.74
2023-01-11T22:22:23.517Z,6.75
2023-01-11T22:24:36.079Z,6.77
2023-01-11T22:26:48.657Z,6.74
2023-01-11T22:29:15.162Z,6.75
2023-01-11T22:31:29.712Z,6.72
2023-01-11T22:33:42.299Z,6.71
2023-01-11T22:35:55.510Z,6.71
2023-01-11T22:38:08.337Z,6.70
2023-01-11T22:40:20.867Z,6.72
2023-01-11T22:42:33.439Z,6.71
2023-01-11T22:44:45.967Z,6.71
2023-01-11T22:47:00.267Z,6.69
2023-01-11T22:49:13.600Z,6.70
2023-01-11T22:51:26.991Z,6.70
2023-01-11T22:53:40.928Z,6.70
2023-01-11T22:55:53.469Z,6.70
2023-01-11T22:58:05.975Z,6.71
2023-01-11T23:00:18.638Z,6.73
2023-01-11T23:02:31.169Z,6.73
2023-01-11T23:04:43.854Z,6.74
2023-01-11T23:06:57.272Z,6.76
2023-01-11T23:09:15.978Z,6.75
2023-01-11T23:11:50.400Z,6.75
2023-01-11T23:14:05.529Z,6.73
2023-01-11T23:16:22.153Z,6.72
2023-01-11T23:18:34.738Z,6.75
2023-01-11T23:20:47.509Z,6.80
2023-01-11T23:23:00.120Z,6.82
2023-01-11T23:25:12.716Z,6.84
2023-01-11T23:27:25.359Z,6.85
2023-01-11T23:29:38.012Z,6.86
2023-01-11T23:31:50.785Z,6.88
2023-01-11T23:34:03.716Z,6.88
2023-01-11T23:36:18.622Z,6.89
2023-01-11T23:38:32.650Z,6.93
2023-01-11T23:41:17.517Z,6.94
2023-01-11T23:43:30.139Z,6.92
2023-01-11T23:45:42.778Z,6.94
2023-01-11T23:47:55.336Z,6.97
2023-01-11T23:50:08.536Z,7.00
2023-01-11T23:52:24.237Z,7.01
2023-01-11T23:54:36.766Z,7.04
2023-01-11T23:56:49.293Z,7.05
2023-01-11T23:59:03.081Z,7.08
